sensor_id;sensor_type;location;lat;lon;timestamp;temperature;humidity
21393;DHT22;10857;52.228;21.026;2024-02-23T00:01:01;9.40;92.90
21393;DHT22;10857;52.228;21.026;2024-02-23T00:03:28;9.40;93.20
21393;DHT22;10857;52.228;21.026;2024-02-23T00:05:55;9.40;93.30
21393;DHT22;10857;52.228;21.026;2024-02-23T00:08:22;9.40;93.50
21393;DHT22;10857;52.228;21.026;2024-02-23T00:10:49;9.30;93.80
21393;DHT22;10857;52.228;21.026;2024-02-23T00:13:17;9.30;94.10
21393;DHT22;10857;52.228;21.026;2024-02-23T00:15:44;9.40;93.80
21393;DHT22;10857;52.228;21.026;2024-02-23T00:18:11;9.40;93.90
21393;DHT22;10857;52.228;21.026;2024-02-23T00:20:40;9.40;94.10
21393;DHT22;10857;52.228;21.026;2024-02-23T00:23:07;9.40;93.90
21393;DHT22;10857;52.228;21.026;2024-02-23T00:25:34;9.40;93.90
21393;DHT22;10857;52.228;21.026;2024-02-23T00:28:01;9.40;94.20
21393;DHT22;10857;52.228;21.026;2024-02-23T00:30:28;9.30;94.50
21393;DHT22;10857;52.228;21.026;2024-02-23T00:32:55;9.40;94.30
21393;DHT22;10857;52.228;21.026;2024-02-23T00:35:22;9.40;94.40
21393;DHT22;10857;52.228;21.026;2024-02-23T00:37:49;9.40;94.30
21393;DHT22;10857;52.228;21.026;2024-02-23T00:40:16;9.40;94.30
21393;DHT22;10857;52.228;21.026;2024-02-23T00:42:44;9.40;94.20
21393;DHT22;10857;52.228;21.026;2024-02-23T00:45:11;9.40;94.20
21393;DHT22;10857;52.228;21.026;2024-02-23T00:47:38;9.40;94.40
21393;DHT22;10857;52.228;21.026;2024-02-23T00:50:06;9.40;94.60
21393;DHT22;10857;52.228;21.026;2024-02-23T00:52:33;9.40;94.50
21393;DHT22;10857;52.228;21.026;2024-02-23T00:55:00;9.50;94.20
21393;DHT22;10857;52.228;21.026;2024-02-23T00:57:27;9.40;94.50
21393;DHT22;10857;52.228;21.026;2024-02-23T00:59:57;9.40;94.50
21393;DHT22;10857;52.228;21.026;2024-02-23T01:02:24;9.50;94.30
21393;DHT22;10857;52.228;21.026;2024-02-23T01:04:51;9.40;94.50
21393;DHT22;10857;52.228;21.026;2024-02-23T01:07:24;9.40;94.70
21393;DHT22;10857;52.228;21.026;2024-02-23T01:09:53;9.30;95.30
21393;DHT22;10857;52.228;21.026;2024-02-23T01:12:19;9.40;95.20
21393;DHT22;10857;52.228;21.026;2024-02-23T01:14:47;9.30;95.60
21393;DHT22;10857;52.228;21.026;2024-02-23T01:17:15;9.30;95.90
21393;DHT22;10857;52.228;21.026;2024-02-23T01:19:43;9.20;96.30
21393;DHT22;10857;52.228;21.026;2024-02-23T01:22:11;9.20;97.20
21393;DHT22;10857;52.228;21.026;2024-02-23T01:24:38;9.30;96.60
21393;DHT22;10857;52.228;21.026;2024-02-23T01:27:05;9.20;96.70
21393;DHT22;10857;52.228;21.026;2024-02-23T01:29:32;9.20;97.20
21393;DHT22;10857;52.228;21.026;2024-02-23T01:32:00;9.20;97.50
21393;DHT22;10857;52.228;21.026;2024-02-23T01:34:27;9.20;97.80
21393;DHT22;10857;52.228;21.026;2024-02-23T01:36:54;9.10;98.50
21393;DHT22;10857;52.228;21.026;2024-02-23T01:39:21;9.10;99.10
21393;DHT22;10857;52.228;21.026;2024-02-23T01:41:48;9.20;98.90
21393;DHT22;10857;52.228;21.026;2024-02-23T01:44:15;9.10;99.10
21393;DHT22;10857;52.228;21.026;2024-02-23T01:46:44;9.10;99.60
21393;DHT22;10857;52.228;21.026;2024-02-23T01:49:12;9.10;99.70
21393;DHT22;10857;52.228;21.026;2024-02-23T01:51:39;9.20;99.80
21393;DHT22;10857;52.228;21.026;2024-02-23T01:54:08;9.20;99.50
21393;DHT22;10857;52.228;21.026;2024-02-23T01:56:37;9.20;99.40
21393;DHT22;10857;52.228;21.026;2024-02-23T01:59:06;9.20;99.80
21393;DHT22;10857;52.228;21.026;2024-02-23T02:01:34;9.20;99.50
21393;DHT22;10857;52.228;21.026;2024-02-23T02:04:01;9.20;99.50
21393;DHT22;10857;52.228;21.026;2024-02-23T02:06:29;9.20;99.90
21393;DHT22;10857;52.228;21.026;2024-02-23T02:08:56;9.20;99.80
21393;DHT22;10857;52.228;21.026;2024-02-23T02:11:23;9.30;99.40
21393;DHT22;10857;52.228;21.026;2024-02-23T02:13:50;9.30;99.40
21393;DHT22;10857;52.228;21.026;2024-02-23T02:16:17;9.30;99.40
21393;DHT22;10857;52.228;21.026;2024-02-23T02:18:44;9.20;99.40
21393;DHT22;10857;52.228;21.026;2024-02-23T02:21:13;9.20;99.80
21393;DHT22;10857;52.228;21.026;2024-02-23T02:23:40;9.20;99.90
21393;DHT22;10857;52.228;21.026;2024-02-23T02:26:08;9.30;99.90
21393;DHT22;10857;52.228;21.026;2024-02-23T02:28:35;9.30;99.20
21393;DHT22;10857;52.228;21.026;2024-02-23T02:31:02;9.30;99.60
21393;DHT22;10857;52.228;21.026;2024-02-23T02:33:29;9.30;99.80
21393;DHT22;10857;52.228;21.026;2024-02-23T02:35:57;9.30;99.50
21393;DHT22;10857;52.228;21.026;2024-02-23T02:38:24;9.30;99.60
21393;DHT22;10857;52.228;21.026;2024-02-23T02:40:51;9.30;99.80
21393;DHT22;10857;52.228;21.026;2024-02-23T02:43:18;9.40;99.10
21393;DHT22;10857;52.228;21.026;2024-02-23T02:45:45;9.40;98.80
21393;DHT22;10857;52.228;21.026;2024-02-23T02:48:13;9.40;98.80
21393;DHT22;10857;52.228;21.026;2024-02-23T02:50:40;9.40;99.10
21393;DHT22;10857;52.228;21.026;2024-02-23T02:53:07;9.40;98.80
21393;DHT22;10857;52.228;21.026;2024-02-23T02:55:34;9.50;98.60
21393;DHT22;10857;52.228;21.026;2024-02-23T02:58:01;9.50;98.00
21393;DHT22;10857;52.228;21.026;2024-02-23T03:00:28;9.50;98.00
21393;DHT22;10857;52.228;21.026;2024-02-23T03:02:55;9.50;98.10
21393;DHT22;10857;52.228;21.026;2024-02-23T03:05:22;9.50;97.90
21393;DHT22;10857;52.228;21.026;2024-02-23T03:07:49;9.50;97.90
21393;DHT22;10857;52.228;21.026;2024-02-23T03:10:17;9.50;98.30
21393;DHT22;10857;52.228;21.026;2024-02-23T03:12:44;9.50;98.30
21393;DHT22;10857;52.228;21.026;2024-02-23T03:15:11;9.60;97.90
21393;DHT22;10857;52.228;21.026;2024-02-23T03:17:38;9.60;98.00
21393;DHT22;10857;52.228;21.026;2024-02-23T03:20:06;9.60;98.70
21393;DHT22;10857;52.228;21.026;2024-02-23T03:22:36;9.60;99.50
21393;DHT22;10857;52.228;21.026;2024-02-23T03:25:04;9.60;99.90
21393;DHT22;10857;52.228;21.026;2024-02-23T03:27:36;9.60;99.90
21393;DHT22;10857;52.228;21.026;2024-02-23T03:30:04;9.70;99.90
21393;DHT22;10857;52.228;21.026;2024-02-23T03:32:32;9.70;99.90
21393;DHT22;10857;52.228;21.026;2024-02-23T03:35:09;9.60;99.90
21393;DHT22;10857;52.228;21.026;2024-02-23T03:37:36;9.60;99.90
21393;DHT22;10857;52.228;21.026;2024-02-23T03:40:07;9.50;99.90
21393;DHT22;10857;52.228;21.026;2024-02-23T03:42:35;9.50;99.90
21393;DHT22;10857;52.228;21.026;2024-02-23T03:45:02;9.50;99.90
21393;DHT22;10857;52.228;21.026;2024-02-23T03:47:29;9.30;99.90
21393;DHT22;10857;52.228;21.026;2024-02-23T03:49:56;9.30;99.90
21393;DHT22;10857;52.228;21.026;2024-02-23T03:52:24;9.30;99.90
21393;DHT22;10857;52.228;21.026;2024-02-23T03:54:52;9.30;99.90
21393;DHT22;10857;52.228;21.026;2024-02-23T03:57:21;9.40;99.90
21393;DHT22;10857;52.228;21.026;2024-02-23T03:59:55;9.30;99.90
21393;DHT22;10857;52.228;21.026;2024-02-23T04:02:22;9.30;99.90
21393;DHT22;10857;52.228;21.026;2024-02-23T04:04:50;9.20;99.90
21393;DHT22;10857;52.228;21.026;2024-02-23T04:07:17;9.20;99.90
21393;DHT22;10857;52.228;21.026;2024-02-23T04:09:44;9.20;99.90
21393;DHT22;10857;52.228;21.026;2024-02-23T04:12:12;9.20;99.90
21393;DHT22;10857;52.228;21.026;2024-02-23T04:14:39;9.20;99.90
21393;DHT22;10857;52.228;21.026;2024-02-23T04:17:07;9.20;99.90
21393;DHT22;10857;52.228;21.026;2024-02-23T04:19:34;9.20;99.90
21393;DHT22;10857;52.228;21.026;2024-02-23T04:22:02;9.20;99.90
21393;DHT22;10857;52.228;21.026;2024-02-23T04:24:29;9.20;99.90
21393;DHT22;10857;52.228;21.026;2024-02-23T04:26:56;9.10;99.90
21393;DHT22;10857;52.228;21.026;2024-02-23T04:29:23;9.20;99.90
21393;DHT22;10857;52.228;21.026;2024-02-23T04:31:50;9.10;99.90
21393;DHT22;10857;52.228;21.026;2024-02-23T04:34:17;9.10;99.90
21393;DHT22;10857;52.228;21.026;2024-02-23T04:36:44;9.10;99.90
21393;DHT22;10857;52.228;21.026;2024-02-23T04:39:11;9.10;99.90
21393;DHT22;10857;52.228;21.026;2024-02-23T04:41:38;9.10;99.90
21393;DHT22;10857;52.228;21.026;2024-02-23T04:44:05;9.10;99.90
21393;DHT22;10857;52.228;21.026;2024-02-23T04:46:33;9.10;99.90
21393;DHT22;10857;52.228;21.026;2024-02-23T04:49:01;9.10;99.90
21393;DHT22;10857;52.228;21.026;2024-02-23T04:51:29;9.10;99.90
21393;DHT22;10857;52.228;21.026;2024-02-23T04:53:56;9.10;99.90
21393;DHT22;10857;52.228;21.026;2024-02-23T04:56:23;9.10;99.90
21393;DHT22;10857;52.228;21.026;2024-02-23T04:58:51;9.10;99.90
21393;DHT22;10857;52.228;21.026;2024-02-23T05:01:18;9.10;99.90
21393;DHT22;10857;52.228;21.026;2024-02-23T05:03:45;9.10;99.90
21393;DHT22;10857;52.228;21.026;2024-02-23T05:06:12;9.10;99.90
21393;DHT22;10857;52.228;21.026;2024-02-23T05:08:40;9.10;99.90
21393;DHT22;10857;52.228;21.026;2024-02-23T05:11:07;9.10;99.90
21393;DHT22;10857;52.228;21.026;2024-02-23T05:13:35;9.00;99.90
21393;DHT22;10857;52.228;21.026;2024-02-23T05:16:03;9.00;99.90
21393;DHT22;10857;52.228;21.026;2024-02-23T05:18:30;9.10;99.90
21393;DHT22;10857;52.228;21.026;2024-02-23T05:20:57;9.10;99.90
21393;DHT22;10857;52.228;21.026;2024-02-23T05:23:24;9.00;99.90
21393;DHT22;10857;52.228;21.026;2024-02-23T05:25:51;9.00;99.90
21393;DHT22;10857;52.228;21.026;2024-02-23T05:28:18;9.00;99.90
21393;DHT22;10857;52.228;21.026;2024-02-23T05:30:45;9.00;99.90
21393;DHT22;10857;52.228;21.026;2024-02-23T05:33:12;8.90;99.90
21393;DHT22;10857;52.228;21.026;2024-02-23T05:35:39;9.00;99.90
21393;DHT22;10857;52.228;21.026;2024-02-23T05:38:06;9.00;99.90
21393;DHT22;10857;52.228;21.026;2024-02-23T05:40:33;9.00;99.90
21393;DHT22;10857;52.228;21.026;2024-02-23T05:43:01;9.00;99.90
21393;DHT22;10857;52.228;21.026;2024-02-23T05:45:28;9.00;99.90
21393;DHT22;10857;52.228;21.026;2024-02-23T05:47:55;9.00;99.90
21393;DHT22;10857;52.228;21.026;2024-02-23T05:50:22;9.00;99.90
21393;DHT22;10857;52.228;21.026;2024-02-23T05:52:49;9.00;99.90
21393;DHT22;10857;52.228;21.026;2024-02-23T05:55:17;9.00;99.90
21393;DHT22;10857;52.228;21.026;2024-02-23T05:57:44;9.00;99.90
21393;DHT22;10857;52.228;21.026;2024-02-23T06:00:11;9.00;99.90
21393;DHT22;10857;52.228;21.026;2024-02-23T06:02:42;9.00;99.90
21393;DHT22;10857;52.228;21.026;2024-02-23T06:05:09;9.00;99.90
21393;DHT22;10857;52.228;21.026;2024-02-23T06:07:36;9.00;99.90
21393;DHT22;10857;52.228;21.026;2024-02-23T06:10:04;9.00;99.90
21393;DHT22;10857;52.228;21.026;2024-02-23T06:12:32;9.00;99.90
21393;DHT22;10857;52.228;21.026;2024-02-23T06:14:59;8.90;99.90
21393;DHT22;10857;52.228;21.026;2024-02-23T06:17:26;8.90;99.90
21393;DHT22;10857;52.228;21.026;2024-02-23T06:19:54;8.90;99.90
21393;DHT22;10857;52.228;21.026;2024-02-23T06:22:24;8.90;99.90
21393;DHT22;10857;52.228;21.026;2024-02-23T06:24:52;8.90;99.90
21393;DHT22;10857;52.228;21.026;2024-02-23T06:27:19;9.00;99.90
21393;DHT22;10857;52.228;21.026;2024-02-23T06:29:48;8.90;99.90
21393;DHT22;10857;52.228;21.026;2024-02-23T06:32:15;9.00;99.90
21393;DHT22;10857;52.228;21.026;2024-02-23T06:34:43;8.90;99.90
21393;DHT22;10857;52.228;21.026;2024-02-23T06:37:10;9.00;99.90
21393;DHT22;10857;52.228;21.026;2024-02-23T06:39:37;8.90;99.90
21393;DHT22;10857;52.228;21.026;2024-02-23T06:42:04;8.90;99.90
21393;DHT22;10857;52.228;21.026;2024-02-23T06:44:32;8.90;99.90
21393;DHT22;10857;52.228;21.026;2024-02-23T06:46:59;9.00;99.90
21393;DHT22;10857;52.228;21.026;2024-02-23T06:49:26;8.90;99.90
21393;DHT22;10857;52.228;21.026;2024-02-23T06:51:53;9.00;99.90
21393;DHT22;10857;52.228;21.026;2024-02-23T06:54:20;9.00;99.90
21393;DHT22;10857;52.228;21.026;2024-02-23T06:56:47;9.00;99.90
21393;DHT22;10857;52.228;21.026;2024-02-23T06:59:14;9.00;99.90
21393;DHT22;10857;52.228;21.026;2024-02-23T07:01:49;9.00;99.90
21393;DHT22;10857;52.228;21.026;2024-02-23T07:04:17;9.00;99.90
21393;DHT22;10857;52.228;21.026;2024-02-23T07:06:44;9.00;99.90
21393;DHT22;10857;52.228;21.026;2024-02-23T07:09:12;9.10;99.90
21393;DHT22;10857;52.228;21.026;2024-02-23T07:11:39;9.10;99.90
21393;DHT22;10857;52.228;21.026;2024-02-23T07:14:09;9.10;99.90
21393;DHT22;10857;52.228;21.026;2024-02-23T07:16:40;9.10;99.90
21393;DHT22;10857;52.228;21.026;2024-02-23T07:19:07;9.00;99.90
21393;DHT22;10857;52.228;21.026;2024-02-23T07:21:36;9.00;99.90
21393;DHT22;10857;52.228;21.026;2024-02-23T07:24:07;9.10;99.90
21393;DHT22;10857;52.228;21.026;2024-02-23T07:26:34;9.00;99.90
21393;DHT22;10857;52.228;21.026;2024-02-23T07:29:01;9.00;99.90
21393;DHT22;10857;52.228;21.026;2024-02-23T07:31:28;9.00;99.90
21393;DHT22;10857;52.228;21.026;2024-02-23T07:33:55;9.10;99.90
21393;DHT22;10857;52.228;21.026;2024-02-23T07:36:23;9.10;99.90
21393;DHT22;10857;52.228;21.026;2024-02-23T07:38:50;9.10;99.90
21393;DHT22;10857;52.228;21.026;2024-02-23T07:41:17;9.10;99.90
21393;DHT22;10857;52.228;21.026;2024-02-23T07:43:47;9.10;99.90
21393;DHT22;10857;52.228;21.026;2024-02-23T07:46:14;9.10;99.90
21393;DHT22;10857;52.228;21.026;2024-02-23T07:48:43;9.10;99.90
21393;DHT22;10857;52.228;21.026;2024-02-23T07:51:10;9.10;99.90
21393;DHT22;10857;52.228;21.026;2024-02-23T07:53:37;9.10;99.90
21393;DHT22;10857;52.228;21.026;2024-02-23T07:56:07;9.10;99.90
21393;DHT22;10857;52.228;21.026;2024-02-23T07:58:34;9.10;99.90
21393;DHT22;10857;52.228;21.026;2024-02-23T08:01:01;9.10;99.90
21393;DHT22;10857;52.228;21.026;2024-02-23T08:03:28;9.10;99.90
21393;DHT22;10857;52.228;21.026;2024-02-23T08:05:56;9.20;99.90
21393;DHT22;10857;52.228;21.026;2024-02-23T08:08:26;9.10;99.90
21393;DHT22;10857;52.228;21.026;2024-02-23T08:10:54;9.20;99.90
21393;DHT22;10857;52.228;21.026;2024-02-23T08:13:22;9.20;99.90
21393;DHT22;10857;52.228;21.026;2024-02-23T08:15:49;9.20;99.90
21393;DHT22;10857;52.228;21.026;2024-02-23T08:18:16;9.20;99.90
21393;DHT22;10857;52.228;21.026;2024-02-23T08:20:43;9.20;99.90
21393;DHT22;10857;52.228;21.026;2024-02-23T08:23:10;9.20;99.90
21393;DHT22;10857;52.228;21.026;2024-02-23T08:25:37;9.20;99.90
21393;DHT22;10857;52.228;21.026;2024-02-23T08:28:05;9.20;99.90
21393;DHT22;10857;52.228;21.026;2024-02-23T08:30:33;9.20;99.90
21393;DHT22;10857;52.228;21.026;2024-02-23T08:33:00;9.20;99.90
21393;DHT22;10857;52.228;21.026;2024-02-23T08:35:27;9.20;99.90
21393;DHT22;10857;52.228;21.026;2024-02-23T08:37:54;9.20;99.90
21393;DHT22;10857;52.228;21.026;2024-02-23T08:40:22;9.20;99.90
21393;DHT22;10857;52.228;21.026;2024-02-23T08:42:49;9.30;99.90
21393;DHT22;10857;52.228;21.026;2024-02-23T08:45:17;9.30;99.90
21393;DHT22;10857;52.228;21.026;2024-02-23T08:47:44;9.30;99.90
21393;DHT22;10857;52.228;21.026;2024-02-23T08:50:11;9.40;99.90
21393;DHT22;10857;52.228;21.026;2024-02-23T08:52:39;9.40;99.90
21393;DHT22;10857;52.228;21.026;2024-02-23T08:55:06;9.40;99.90
21393;DHT22;10857;52.228;21.026;2024-02-23T08:57:33;9.50;99.90
21393;DHT22;10857;52.228;21.026;2024-02-23T09:00:01;9.40;99.90
21393;DHT22;10857;52.228;21.026;2024-02-23T09:02:28;9.50;99.90
21393;DHT22;10857;52.228;21.026;2024-02-23T09:04:55;9.50;99.90
21393;DHT22;10857;52.228;21.026;2024-02-23T09:07:22;9.50;99.90
21393;DHT22;10857;52.228;21.026;2024-02-23T09:09:51;9.60;99.90
21393;DHT22;10857;52.228;21.026;2024-02-23T09:12:18;9.60;99.90
21393;DHT22;10857;52.228;21.026;2024-02-23T09:14:45;9.60;99.90
21393;DHT22;10857;52.228;21.026;2024-02-23T09:17:13;9.70;99.90
21393;DHT22;10857;52.228;21.026;2024-02-23T09:19:40;9.70;99.90
21393;DHT22;10857;52.228;21.026;2024-02-23T09:22:07;9.70;99.90
21393;DHT22;10857;52.228;21.026;2024-02-23T09:24:34;9.80;99.90
21393;DHT22;10857;52.228;21.026;2024-02-23T09:27:02;9.80;99.90
21393;DHT22;10857;52.228;21.026;2024-02-23T09:29:30;9.80;99.90
21393;DHT22;10857;52.228;21.026;2024-02-23T09:31:57;9.80;99.90
21393;DHT22;10857;52.228;21.026;2024-02-23T09:34:24;9.90;99.90
21393;DHT22;10857;52.228;21.026;2024-02-23T09:36:52;10.00;99.90
21393;DHT22;10857;52.228;21.026;2024-02-23T09:39:21;10.00;99.90
21393;DHT22;10857;52.228;21.026;2024-02-23T09:41:50;10.10;99.90
21393;DHT22;10857;52.228;21.026;2024-02-23T09:44:18;10.10;99.90
21393;DHT22;10857;52.228;21.026;2024-02-23T09:46:48;10.10;99.90
21393;DHT22;10857;52.228;21.026;2024-02-23T09:49:15;10.10;99.90
21393;DHT22;10857;52.228;21.026;2024-02-23T09:51:43;10.10;99.90
21393;DHT22;10857;52.228;21.026;2024-02-23T09:54:11;10.10;99.90
21393;DHT22;10857;52.228;21.026;2024-02-23T09:56:38;10.10;99.90
21393;DHT22;10857;52.228;21.026;2024-02-23T09:59:06;10.10;99.90
21393;DHT22;10857;52.228;21.026;2024-02-23T10:01:33;10.10;99.90
21393;DHT22;10857;52.228;21.026;2024-02-23T10:04:01;10.10;99.90
21393;DHT22;10857;52.228;21.026;2024-02-23T10:06:32;10.10;99.90
21393;DHT22;10857;52.228;21.026;2024-02-23T10:08:59;10.10;99.90
21393;DHT22;10857;52.228;21.026;2024-02-23T10:11:26;10.10;99.90
21393;DHT22;10857;52.228;21.026;2024-02-23T10:13:54;10.20;99.90
21393;DHT22;10857;52.228;21.026;2024-02-23T10:16:22;10.20;99.90
21393;DHT22;10857;52.228;21.026;2024-02-23T10:18:49;10.20;99.90
21393;DHT22;10857;52.228;21.026;2024-02-23T10:21:17;10.20;99.90
21393;DHT22;10857;52.228;21.026;2024-02-23T10:23:45;10.20;99.90
21393;DHT22;10857;52.228;21.026;2024-02-23T10:26:13;10.20;99.90
21393;DHT22;10857;52.228;21.026;2024-02-23T10:28:46;10.30;99.90
21393;DHT22;10857;52.228;21.026;2024-02-23T10:31:14;10.30;99.90
21393;DHT22;10857;52.228;21.026;2024-02-23T10:33:46;10.20;99.90
21393;DHT22;10857;52.228;21.026;2024-02-23T10:36:15;10.30;99.90
21393;DHT22;10857;52.228;21.026;2024-02-23T10:38:45;10.30;99.90
21393;DHT22;10857;52.228;21.026;2024-02-23T10:41:17;10.40;99.90
21393;DHT22;10857;52.228;21.026;2024-02-23T10:43:47;10.40;99.90
21393;DHT22;10857;52.228;21.026;2024-02-23T10:46:15;10.40;99.90
21393;DHT22;10857;52.228;21.026;2024-02-23T10:48:44;10.40;99.90
21393;DHT22;10857;52.228;21.026;2024-02-23T10:51:13;10.40;99.90
21393;DHT22;10857;52.228;21.026;2024-02-23T10:53:46;10.40;99.90
21393;DHT22;10857;52.228;21.026;2024-02-23T10:56:15;10.50;99.90
21393;DHT22;10857;52.228;21.026;2024-02-23T10:58:43;10.50;99.90
21393;DHT22;10857;52.228;21.026;2024-02-23T11:01:10;10.50;99.90
21393;DHT22;10857;52.228;21.026;2024-02-23T11:03:40;10.50;99.90
21393;DHT22;10857;52.228;21.026;2024-02-23T11:06:08;10.50;99.90
21393;DHT22;10857;52.228;21.026;2024-02-23T11:08:36;10.50;99.90
21393;DHT22;10857;52.228;21.026;2024-02-23T11:11:09;10.50;99.90
21393;DHT22;10857;52.228;21.026;2024-02-23T11:13:38;10.40;99.90
21393;DHT22;10857;52.228;21.026;2024-02-23T11:16:06;10.50;99.90
21393;DHT22;10857;52.228;21.026;2024-02-23T11:18:35;10.40;99.90
21393;DHT22;10857;52.228;21.026;2024-02-23T11:21:03;10.40;99.90
21393;DHT22;10857;52.228;21.026;2024-02-23T11:26:12;10.50;99.90
21393;DHT22;10857;52.228;21.026;2024-02-23T11:28:47;10.50;99.90
21393;DHT22;10857;52.228;21.026;2024-02-23T11:31:16;10.50;99.90
21393;DHT22;10857;52.228;21.026;2024-02-23T11:33:49;10.50;99.90
21393;DHT22;10857;52.228;21.026;2024-02-23T11:36:27;10.50;99.90
21393;DHT22;10857;52.228;21.026;2024-02-23T11:38:57;10.40;99.90
21393;DHT22;10857;52.228;21.026;2024-02-23T11:41:25;10.40;99.90
21393;DHT22;10857;52.228;21.026;2024-02-23T11:43:53;10.40;99.90
21393;DHT22;10857;52.228;21.026;2024-02-23T11:46:22;10.40;99.90
21393;DHT22;10857;52.228;21.026;2024-02-23T11:48:49;10.40;99.90
21393;DHT22;10857;52.228;21.026;2024-02-23T11:51:23;10.40;99.90
21393;DHT22;10857;52.228;21.026;2024-02-23T11:53:55;10.50;99.90
21393;DHT22;10857;52.228;21.026;2024-02-23T11:56:25;10.50;99.90
21393;DHT22;10857;52.228;21.026;2024-02-23T11:58:53;10.50;99.90
21393;DHT22;10857;52.228;21.026;2024-02-23T12:01:21;10.50;99.90
21393;DHT22;10857;52.228;21.026;2024-02-23T12:03:49;10.50;99.90
21393;DHT22;10857;52.228;21.026;2024-02-23T12:06:17;10.60;99.90
21393;DHT22;10857;52.228;21.026;2024-02-23T12:08:44;10.60;99.90
21393;DHT22;10857;52.228;21.026;2024-02-23T12:11:12;10.60;99.90
21393;DHT22;10857;52.228;21.026;2024-02-23T12:13:41;10.60;99.90
21393;DHT22;10857;52.228;21.026;2024-02-23T12:16:08;10.60;99.90
21393;DHT22;10857;52.228;21.026;2024-02-23T12:18:36;10.60;99.90
21393;DHT22;10857;52.228;21.026;2024-02-23T12:21:05;10.60;99.90
21393;DHT22;10857;52.228;21.026;2024-02-23T12:23:43;10.60;99.90
21393;DHT22;10857;52.228;21.026;2024-02-23T12:26:13;10.60;99.90
21393;DHT22;10857;52.228;21.026;2024-02-23T12:28:41;10.60;99.90
21393;DHT22;10857;52.228;21.026;2024-02-23T12:31:08;10.70;99.90
21393;DHT22;10857;52.228;21.026;2024-02-23T12:33:37;10.70;99.90
21393;DHT22;10857;52.228;21.026;2024-02-23T12:36:10;10.70;99.90
21393;DHT22;10857;52.228;21.026;2024-02-23T12:38:37;10.70;99.90
21393;DHT22;10857;52.228;21.026;2024-02-23T12:41:04;10.70;99.90
21393;DHT22;10857;52.228;21.026;2024-02-23T12:43:32;10.70;99.90
21393;DHT22;10857;52.228;21.026;2024-02-23T12:45:59;10.70;99.90
21393;DHT22;10857;52.228;21.026;2024-02-23T12:48:28;10.70;99.90
21393;DHT22;10857;52.228;21.026;2024-02-23T12:50:55;10.70;99.90
21393;DHT22;10857;52.228;21.026;2024-02-23T12:53:35;10.70;99.90
21393;DHT22;10857;52.228;21.026;2024-02-23T12:56:11;10.70;99.90
21393;DHT22;10857;52.228;21.026;2024-02-23T12:58:42;10.80;99.90
21393;DHT22;10857;52.228;21.026;2024-02-23T13:01:10;10.80;99.90
21393;DHT22;10857;52.228;21.026;2024-02-23T13:03:38;10.80;99.90
21393;DHT22;10857;52.228;21.026;2024-02-23T13:06:08;10.80;99.90
21393;DHT22;10857;52.228;21.026;2024-02-23T13:08:35;10.80;99.90
21393;DHT22;10857;52.228;21.026;2024-02-23T13:11:02;10.80;99.90
21393;DHT22;10857;52.228;21.026;2024-02-23T13:13:30;10.80;99.90
21393;DHT22;10857;52.228;21.026;2024-02-23T13:15:58;10.80;99.90
21393;DHT22;10857;52.228;21.026;2024-02-23T13:18:26;10.80;99.90
21393;DHT22;10857;52.228;21.026;2024-02-23T13:20:53;10.80;99.90
21393;DHT22;10857;52.228;21.026;2024-02-23T13:23:20;10.80;99.90
21393;DHT22;10857;52.228;21.026;2024-02-23T13:25:47;10.70;99.90
21393;DHT22;10857;52.228;21.026;2024-02-23T13:28:14;10.70;99.90
21393;DHT22;10857;52.228;21.026;2024-02-23T13:30:41;10.80;99.90
21393;DHT22;10857;52.228;21.026;2024-02-23T13:33:10;10.80;99.90
21393;DHT22;10857;52.228;21.026;2024-02-23T13:35:38;10.80;99.90
21393;DHT22;10857;52.228;21.026;2024-02-23T13:38:07;10.60;99.90
21393;DHT22;10857;52.228;21.026;2024-02-23T13:40:34;10.70;99.90
21393;DHT22;10857;52.228;21.026;2024-02-23T13:43:01;10.70;99.90
21393;DHT22;10857;52.228;21.026;2024-02-23T13:45:28;10.80;99.90
21393;DHT22;10857;52.228;21.026;2024-02-23T13:47:59;10.80;99.90
21393;DHT22;10857;52.228;21.026;2024-02-23T13:50:27;10.80;99.90
21393;DHT22;10857;52.228;21.026;2024-02-23T13:52:55;10.80;99.90
21393;DHT22;10857;52.228;21.026;2024-02-23T13:55:22;10.80;99.90
21393;DHT22;10857;52.228;21.026;2024-02-23T13:57:49;10.80;99.90
21393;DHT22;10857;52.228;21.026;2024-02-23T14:00:17;10.80;99.90
21393;DHT22;10857;52.228;21.026;2024-02-23T14:02:47;10.70;99.90
21393;DHT22;10857;52.228;21.026;2024-02-23T14:05:15;10.80;99.90
21393;DHT22;10857;52.228;21.026;2024-02-23T14:07:43;10.80;99.90
21393;DHT22;10857;52.228;21.026;2024-02-23T14:10:10;10.70;99.90
21393;DHT22;10857;52.228;21.026;2024-02-23T14:12:37;10.70;99.90
21393;DHT22;10857;52.228;21.026;2024-02-23T14:15:05;10.70;99.90
21393;DHT22;10857;52.228;21.026;2024-02-23T14:17:33;10.60;99.90
21393;DHT22;10857;52.228;21.026;2024-02-23T14:20:02;10.60;99.90
21393;DHT22;10857;52.228;21.026;2024-02-23T14:22:30;10.50;99.90
21393;DHT22;10857;52.228;21.026;2024-02-23T14:24:59;10.50;99.90
21393;DHT22;10857;52.228;21.026;2024-02-23T14:27:26;10.30;99.90
21393;DHT22;10857;52.228;21.026;2024-02-23T14:29:58;10.40;99.90
21393;DHT22;10857;52.228;21.026;2024-02-23T14:32:25;10.50;99.90
21393;DHT22;10857;52.228;21.026;2024-02-23T14:34:53;10.60;99.90
21393;DHT22;10857;52.228;21.026;2024-02-23T14:37:20;10.60;99.90
21393;DHT22;10857;52.228;21.026;2024-02-23T14:39:47;10.60;99.90
21393;DHT22;10857;52.228;21.026;2024-02-23T14:42:16;10.60;99.90
21393;DHT22;10857;52.228;21.026;2024-02-23T14:44:43;10.60;99.90
21393;DHT22;10857;52.228;21.026;2024-02-23T14:47:10;10.50;99.90
21393;DHT22;10857;52.228;21.026;2024-02-23T14:49:39;10.60;99.90
21393;DHT22;10857;52.228;21.026;2024-02-23T14:52:06;10.60;99.90
21393;DHT22;10857;52.228;21.026;2024-02-23T14:54:33;10.60;99.90
21393;DHT22;10857;52.228;21.026;2024-02-23T14:57:01;10.60;99.90
21393;DHT22;10857;52.228;21.026;2024-02-23T14:59:28;10.60;99.90
21393;DHT22;10857;52.228;21.026;2024-02-23T15:01:55;10.60;99.90
21393;DHT22;10857;52.228;21.026;2024-02-23T15:04:22;10.60;99.90
21393;DHT22;10857;52.228;21.026;2024-02-23T15:06:49;10.60;99.90
21393;DHT22;10857;52.228;21.026;2024-02-23T15:09:17;10.60;99.90
21393;DHT22;10857;52.228;21.026;2024-02-23T15:11:44;10.70;99.90
21393;DHT22;10857;52.228;21.026;2024-02-23T15:14:12;10.70;99.90
21393;DHT22;10857;52.228;21.026;2024-02-23T15:16:42;10.70;99.90
21393;DHT22;10857;52.228;21.026;2024-02-23T15:19:09;10.70;99.90
21393;DHT22;10857;52.228;21.026;2024-02-23T15:21:37;10.80;99.90
21393;DHT22;10857;52.228;21.026;2024-02-23T15:24:07;10.80;99.90
21393;DHT22;10857;52.228;21.026;2024-02-23T15:26:34;10.80;99.90
21393;DHT22;10857;52.228;21.026;2024-02-23T15:29:02;10.80;99.90
21393;DHT22;10857;52.228;21.026;2024-02-23T15:31:30;10.90;99.90